sensor_id;sensor_type;location;lat;lon;timestamp;pressure;altitude;pressure_sealevel;temperature;humidity
17230;BME280;8731;50.364;8.958;2022-10-23T00:00:45;100130.63;;;12.42;92.92
17230;BME280;8731;50.364;8.958;2022-10-23T00:05:07;100125.66;;;12.34;92.57
17230;BME280;8731;50.364;8.958;2022-10-23T00:09:30;100129.56;;;12.30;92.11
17230;BME280;8731;50.364;8.958;2022-10-23T00:13:56;100116.94;;;12.11;92.72
17230;BME280;8731;50.364;8.958;2022-10-23T00:18:20;100116.13;;;12.02;93.19
17230;BME280;8731;50.364;8.958;2022-10-23T00:22:42;100120.59;;;12.05;92.45
17230;BME280;8731;50.364;8.958;2022-10-23T00:27:05;100121.22;;;12.02;92.03
17230;BME280;8731;50.364;8.958;2022-10-23T00:31:28;100124.28;;;11.98;91.98
17230;BME280;8731;50.364;8.958;2022-10-23T00:35:50;100141.75;;;11.93;92.28
17230;BME280;8731;50.364;8.958;2022-10-23T00:40:13;100140.59;;;11.90;91.95
17230;BME280;8731;50.364;8.958;2022-10-23T00:45:08;100143.34;;;11.83;92.41
17230;BME280;8731;50.364;8.958;2022-10-23T00:49:35;100143.84;;;11.79;92.74
17230;BME280;8731;50.364;8.958;2022-10-23T00:53:59;100144.44;;;11.76;91.89
17230;BME280;8731;50.364;8.958;2022-10-23T00:58:23;100133.09;;;11.73;92.03
17230;BME280;8731;50.364;8.958;2022-10-23T01:02:46;100134.75;;;11.72;91.94
17230;BME280;8731;50.364;8.958;2022-10-23T01:07:13;100124.91;;;11.66;92.30
17230;BME280;8731;50.364;8.958;2022-10-23T01:11:47;100107.00;;;11.56;92.45
17230;BME280;8731;50.364;8.958;2022-10-23T01:16:18;100105.44;;;11.48;93.67
17230;BME280;8731;50.364;8.958;2022-10-23T01:20:45;100093.59;;;11.49;92.86
17230;BME280;8731;50.364;8.958;2022-10-23T01:25:22;100083.50;;;11.40;93.01
17230;BME280;8731;50.364;8.958;2022-10-23T01:30:00;100087.84;;;11.41;93.24
17230;BME280;8731;50.364;8.958;2022-10-23T01:34:32;100085.03;;;11.38;93.28
17230;BME280;8731;50.364;8.958;2022-10-23T01:39:06;100088.16;;;11.35;93.50
17230;BME280;8731;50.364;8.958;2022-10-23T01:43:37;100083.44;;;11.30;93.26
17230;BME280;8731;50.364;8.958;2022-10-23T01:48:05;100096.00;;;11.18;94.38
17230;BME280;8731;50.364;8.958;2022-10-23T01:52:32;100089.38;;;11.20;94.17
17230;BME280;8731;50.364;8.958;2022-10-23T01:56:58;100085.81;;;11.18;93.70
17230;BME280;8731;50.364;8.958;2022-10-23T02:01:26;100084.78;;;11.16;93.69
17230;BME280;8731;50.364;8.958;2022-10-23T02:05:52;100076.44;;;11.08;94.01
17230;BME280;8731;50.364;8.958;2022-10-23T02:10:14;100078.44;;;11.02;93.93
17230;BME280;8731;50.364;8.958;2022-10-23T02:14:45;100062.38;;;10.93;93.97
17230;BME280;8731;50.364;8.958;2022-10-23T02:19:19;100057.53;;;10.96;94.43
17230;BME280;8731;50.364;8.958;2022-10-23T02:24:02;100057.41;;;10.95;93.89
17230;BME280;8731;50.364;8.958;2022-10-23T02:28:38;100044.72;;;10.86;94.02
17230;BME280;8731;50.364;8.958;2022-10-23T02:33:05;100040.53;;;10.87;94.19
17230;BME280;8731;50.364;8.958;2022-10-23T02:37:29;100033.66;;;10.86;94.02
17230;BME280;8731;50.364;8.958;2022-10-23T02:41:56;100035.78;;;10.81;93.71
17230;BME280;8731;50.364;8.958;2022-10-23T02:46:31;100034.09;;;10.71;94.36
17230;BME280;8731;50.364;8.958;2022-10-23T02:51:04;100027.19;;;10.70;95.29
17230;BME280;8731;50.364;8.958;2022-10-23T02:55:41;100036.75;;;10.73;94.76
17230;BME280;8731;50.364;8.958;2022-10-23T03:00:16;100026.38;;;10.61;94.20
17230;BME280;8731;50.364;8.958;2022-10-23T03:04:43;100015.84;;;10.67;95.07
17230;BME280;8731;50.364;8.958;2022-10-23T03:09:08;100019.16;;;10.66;94.84
17230;BME280;8731;50.364;8.958;2022-10-23T03:13:32;100012.69;;;10.69;94.98
17230;BME280;8731;50.364;8.958;2022-10-23T03:17:56;100010.00;;;10.68;94.80
17230;BME280;8731;50.364;8.958;2022-10-23T03:22:18;100026.81;;;10.66;95.10
17230;BME280;8731;50.364;8.958;2022-10-23T03:26:41;100025.00;;;10.65;95.53
17230;BME280;8731;50.364;8.958;2022-10-23T03:31:04;100018.59;;;10.60;95.71
17230;BME280;8731;50.364;8.958;2022-10-23T03:35:27;100014.19;;;10.49;95.71
17230;BME280;8731;50.364;8.958;2022-10-23T03:39:50;100019.28;;;10.49;95.40
17230;BME280;8731;50.364;8.958;2022-10-23T03:44:12;100009.78;;;10.37;95.88
17230;BME280;8731;50.364;8.958;2022-10-23T03:48:38;99996.25;;;10.47;95.46
17230;BME280;8731;50.364;8.958;2022-10-23T03:53:02;100019.03;;;10.45;95.79
17230;BME280;8731;50.364;8.958;2022-10-23T03:57:27;100020.81;;;10.47;96.09
17230;BME280;8731;50.364;8.958;2022-10-23T04:01:50;100028.31;;;10.45;97.04
17230;BME280;8731;50.364;8.958;2022-10-23T04:06:12;100019.16;;;10.47;96.70
17230;BME280;8731;50.364;8.958;2022-10-23T04:10:36;100022.59;;;10.48;96.63
17230;BME280;8731;50.364;8.958;2022-10-23T04:14:59;100024.38;;;10.49;96.84
17230;BME280;8731;50.364;8.958;2022-10-23T04:19:21;100017.22;;;10.44;97.05
17230;BME280;8731;50.364;8.958;2022-10-23T04:23:43;100035.81;;;10.43;97.64
17230;BME280;8731;50.364;8.958;2022-10-23T04:28:10;100029.34;;;10.47;97.37
17230;BME280;8731;50.364;8.958;2022-10-23T04:32:34;100034.78;;;10.41;97.68
17230;BME280;8731;50.364;8.958;2022-10-23T04:36:58;100031.66;;;10.35;98.19
17230;BME280;8731;50.364;8.958;2022-10-23T04:41:20;100017.63;;;10.30;99.17
17230;BME280;8731;50.364;8.958;2022-10-23T04:45:44;100009.44;;;10.24;98.93
17230;BME280;8731;50.364;8.958;2022-10-23T04:50:08;100020.16;;;10.30;98.78
17230;BME280;8731;50.364;8.958;2022-10-23T04:54:49;100012.81;;;10.33;98.05
17230;BME280;8731;50.364;8.958;2022-10-23T04:59:32;100017.28;;;10.36;97.66
17230;BME280;8731;50.364;8.958;2022-10-23T05:03:56;100006.69;;;10.31;97.58
17230;BME280;8731;50.364;8.958;2022-10-23T05:08:19;100004.28;;;10.33;98.06
17230;BME280;8731;50.364;8.958;2022-10-23T05:13:00;99993.34;;;10.34;97.59
17230;BME280;8731;50.364;8.958;2022-10-23T05:17:26;99994.19;;;10.24;97.16
17230;BME280;8731;50.364;8.958;2022-10-23T05:21:54;100002.69;;;10.25;97.41
17230;BME280;8731;50.364;8.958;2022-10-23T05:26:30;99989.50;;;10.29;97.18
17230;BME280;8731;50.364;8.958;2022-10-23T05:30:59;99990.75;;;10.15;98.13
17230;BME280;8731;50.364;8.958;2022-10-23T05:35:25;99982.84;;;10.12;98.36
17230;BME280;8731;50.364;8.958;2022-10-23T05:39:50;99990.75;;;10.15;97.99
17230;BME280;8731;50.364;8.958;2022-10-23T05:44:13;99989.22;;;10.17;97.49
17230;BME280;8731;50.364;8.958;2022-10-23T05:49:01;99984.13;;;10.17;97.15
17230;BME280;8731;50.364;8.958;2022-10-23T05:53:32;99972.34;;;10.18;97.02
17230;BME280;8731;50.364;8.958;2022-10-23T05:58:15;99978.16;;;10.16;97.14
17230;BME280;8731;50.364;8.958;2022-10-23T06:02:57;99968.81;;;10.07;97.57
17230;BME280;8731;50.364;8.958;2022-10-23T06:07:33;99965.03;;;10.12;97.43
17230;BME280;8731;50.364;8.958;2022-10-23T06:11:59;99961.72;;;10.13;97.16
17230;BME280;8731;50.364;8.958;2022-10-23T06:16:26;99962.75;;;10.15;97.10
17230;BME280;8731;50.364;8.958;2022-10-23T06:20:48;99959.44;;;10.16;97.44
17230;BME280;8731;50.364;8.958;2022-10-23T06:25:19;99970.69;;;10.18;97.32
17230;BME280;8731;50.364;8.958;2022-10-23T06:29:43;99959.44;;;10.16;97.91
17230;BME280;8731;50.364;8.958;2022-10-23T06:34:10;99957.66;;;10.15;98.89
17230;BME280;8731;50.364;8.958;2022-10-23T06:38:33;99944.94;;;10.15;98.91
17230;BME280;8731;50.364;8.958;2022-10-23T06:42:57;99941.09;;;10.10;99.53
17230;BME280;8731;50.364;8.958;2022-10-23T06:47:22;99948.25;;;10.14;98.26
17230;BME280;8731;50.364;8.958;2022-10-23T06:52:15;99951.31;;;10.29;98.40
17230;BME280;8731;50.364;8.958;2022-10-23T06:56:37;99951.72;;;10.33;98.01
17230;BME280;8731;50.364;8.958;2022-10-23T07:01:04;99946.50;;;10.32;98.39
17230;BME280;8731;50.364;8.958;2022-10-23T07:05:27;99936.59;;;10.54;98.17
17230;BME280;8731;50.364;8.958;2022-10-23T07:09:51;99930.63;;;10.82;97.41
17230;BME280;8731;50.364;8.958;2022-10-23T07:14:32;99930.00;;;11.34;97.08
17230;BME280;8731;50.364;8.958;2022-10-23T07:18:58;99933.25;;;11.52;97.03
17230;BME280;8731;50.364;8.958;2022-10-23T07:23:21;99938.56;;;11.84;96.93
17230;BME280;8731;50.364;8.958;2022-10-23T07:27:44;99932.00;;;12.38;96.05
17230;BME280;8731;50.364;8.958;2022-10-23T07:32:07;99950.38;;;12.76;95.81
17230;BME280;8731;50.364;8.958;2022-10-23T07:36:48;99939.00;;;13.25;95.27
17230;BME280;8731;50.364;8.958;2022-10-23T07:41:11;99926.66;;;13.53;94.13
17230;BME280;8731;50.364;8.958;2022-10-23T07:45:36;99927.34;;;13.96;94.20
17230;BME280;8731;50.364;8.958;2022-10-23T07:50:09;99934.88;;;14.28;93.42
17230;BME280;8731;50.364;8.958;2022-10-23T07:54:31;99924.47;;;14.48;92.44
17230;BME280;8731;50.364;8.958;2022-10-23T07:58:54;99917.19;;;14.78;91.59
17230;BME280;8731;50.364;8.958;2022-10-23T08:03:18;99921.44;;;15.25;90.67
17230;BME280;8731;50.364;8.958;2022-10-23T08:07:41;99918.69;;;15.47;89.51
17230;BME280;8731;50.364;8.958;2022-10-23T08:12:04;99906.16;;;16.02;89.08
17230;BME280;8731;50.364;8.958;2022-10-23T08:16:27;99899.50;;;16.43;88.52
17230;BME280;8731;50.364;8.958;2022-10-23T08:21:03;99906.44;;;16.71;87.66
17230;BME280;8731;50.364;8.958;2022-10-23T08:25:27;99898.78;;;17.12;86.76
17230;BME280;8731;50.364;8.958;2022-10-23T08:29:49;99896.97;;;17.52;85.72
17230;BME280;8731;50.364;8.958;2022-10-23T08:34:12;99901.13;;;17.93;85.17
17230;BME280;8731;50.364;8.958;2022-10-23T08:38:37;99891.97;;;18.42;84.12
17230;BME280;8731;50.364;8.958;2022-10-23T08:43:04;99902.03;;;17.78;79.15
17230;BME280;8731;50.364;8.958;2022-10-23T08:47:45;99886.34;;;18.79;80.46
17230;BME280;8731;50.364;8.958;2022-10-23T08:52:31;99898.63;;;19.46;80.68
17230;BME280;8731;50.364;8.958;2022-10-23T08:57:03;99893.00;;;19.53;80.05
17230;BME280;8731;50.364;8.958;2022-10-23T09:01:37;99889.22;;;18.99;77.41
17230;BME280;8731;50.364;8.958;2022-10-23T09:06:07;99881.91;;;19.23;77.33
17230;BME280;8731;50.364;8.958;2022-10-23T09:11:02;99855.19;;;19.39;77.05
17230;BME280;8731;50.364;8.958;2022-10-23T09:15:34;99866.28;;;18.89;77.11
17230;BME280;8731;50.364;8.958;2022-10-23T09:20:12;99863.59;;;19.51;75.82
17230;BME280;8731;50.364;8.958;2022-10-23T09:24:41;99875.59;;;19.35;79.58
17230;BME280;8731;50.364;8.958;2022-10-23T09:29:20;99865.38;;;18.58;76.11
17230;BME280;8731;50.364;8.958;2022-10-23T09:33:54;99865.56;;;18.92;78.24
17230;BME280;8731;50.364;8.958;2022-10-23T09:38:25;99869.09;;;18.78;79.63
17230;BME280;8731;50.364;8.958;2022-10-23T09:42:56;99855.56;;;18.21;77.84
17230;BME280;8731;50.364;8.958;2022-10-23T09:47:21;99828.78;;;18.34;78.54
17230;BME280;8731;50.364;8.958;2022-10-23T09:51:53;99828.97;;;18.37;77.79
17230;BME280;8731;50.364;8.958;2022-10-23T09:56:25;99829.25;;;17.68;78.14
17230;BME280;8731;50.364;8.958;2022-10-23T10:00:49;99830.69;;;18.07;79.03
17230;BME280;8731;50.364;8.958;2022-10-23T10:05:21;99830.22;;;18.29;78.82
17230;BME280;8731;50.364;8.958;2022-10-23T10:09:46;99842.50;;;17.89;78.37
17230;BME280;8731;50.364;8.958;2022-10-23T10:14:28;99836.41;;;17.44;78.20
17230;BME280;8731;50.364;8.958;2022-10-23T10:19:02;99839.75;;;17.86;78.98
17230;BME280;8731;50.364;8.958;2022-10-23T10:23:36;99844.19;;;17.88;80.23
17230;BME280;8731;50.364;8.958;2022-10-23T10:28:19;99840.75;;;18.02;78.44
17230;BME280;8731;50.364;8.958;2022-10-23T10:32:53;99844.28;;;17.90;79.17
17230;BME280;8731;50.364;8.958;2022-10-23T10:37:25;99828.38;;;17.97;78.46
17230;BME280;8731;50.364;8.958;2022-10-23T10:42:01;99827.44;;;17.80;78.37
17230;BME280;8731;50.364;8.958;2022-10-23T10:46:38;99800.06;;;17.82;79.09
17230;BME280;8731;50.364;8.958;2022-10-23T10:51:11;99792.50;;;17.70;77.72
17230;BME280;8731;50.364;8.958;2022-10-23T10:55:45;99789.47;;;18.22;78.67
17230;BME280;8731;50.364;8.958;2022-10-23T11:00:14;99777.88;;;17.84;77.66
17230;BME280;8731;50.364;8.958;2022-10-23T11:04:43;99774.81;;;18.06;79.19
17230;BME280;8731;50.364;8.958;2022-10-23T11:09:16;99772.16;;;18.35;77.73
17230;BME280;8731;50.364;8.958;2022-10-23T11:13:43;99781.41;;;18.47;78.21
17230;BME280;8731;50.364;8.958;2022-10-23T11:18:13;99777.97;;;18.31;76.20
17230;BME280;8731;50.364;8.958;2022-10-23T11:22:49;99765.56;;;18.40;76.39
17230;BME280;8731;50.364;8.958;2022-10-23T11:27:26;99755.78;;;18.50;76.59
17230;BME280;8731;50.364;8.958;2022-10-23T11:32:16;99753.78;;;18.29;78.20
17230;BME280;8731;50.364;8.958;2022-10-23T11:36:51;99737.81;;;18.20;76.76
17230;BME280;8731;50.364;8.958;2022-10-23T11:41:19;99727.00;;;18.11;75.84
17230;BME280;8731;50.364;8.958;2022-10-23T11:45:43;99728.50;;;18.22;76.08
17230;BME280;8731;50.364;8.958;2022-10-23T11:50:24;99727.50;;;18.20;77.85
17230;BME280;8731;50.364;8.958;2022-10-23T11:54:59;99714.50;;;18.33;77.73
17230;BME280;8731;50.364;8.958;2022-10-23T11:59:27;99710.78;;;18.28;77.16
17230;BME280;8731;50.364;8.958;2022-10-23T12:03:53;99716.75;;;18.27;77.20
17230;BME280;8731;50.364;8.958;2022-10-23T12:08:24;99711.84;;;18.01;77.90
17230;BME280;8731;50.364;8.958;2022-10-23T12:12:54;99691.66;;;17.77;77.57
17230;BME280;8731;50.364;8.958;2022-10-23T12:17:29;99670.53;;;17.99;78.28
17230;BME280;8731;50.364;8.958;2022-10-23T12:21:57;99658.56;;;18.16;78.08
17230;BME280;8731;50.364;8.958;2022-10-23T12:26:32;99666.31;;;17.85;77.05
17230;BME280;8731;50.364;8.958;2022-10-23T12:31:23;99669.66;;;18.15;76.77
17230;BME280;8731;50.364;8.958;2022-10-23T12:36:11;99655.53;;;17.92;76.35
17230;BME280;8731;50.364;8.958;2022-10-23T12:41:09;99655.97;;;18.00;76.71
17230;BME280;8731;50.364;8.958;2022-10-23T12:45:36;99655.50;;;18.07;76.81
17230;BME280;8731;50.364;8.958;2022-10-23T12:50:01;99639.16;;;18.88;73.72
17230;BME280;8731;50.364;8.958;2022-10-23T12:54:25;99627.38;;;19.27;73.58
17230;BME280;8731;50.364;8.958;2022-10-23T12:58:50;99625.66;;;19.61;71.98
17230;BME280;8731;50.364;8.958;2022-10-23T13:03:14;99624.19;;;19.15;72.18
17230;BME280;8731;50.364;8.958;2022-10-23T13:07:42;99615.75;;;19.88;76.70
17230;BME280;8731;50.364;8.958;2022-10-23T13:12:17;99605.03;;;19.81;73.64
17230;BME280;8731;50.364;8.958;2022-10-23T13:16:43;99611.84;;;19.79;70.97
17230;BME280;8731;50.364;8.958;2022-10-23T13:21:16;99593.09;;;19.47;72.16
17230;BME280;8731;50.364;8.958;2022-10-23T13:25:41;99598.94;;;19.43;74.47
17230;BME280;8731;50.364;8.958;2022-10-23T13:30:27;99593.25;;;19.50;73.57
17230;BME280;8731;50.364;8.958;2022-10-23T13:34:51;99581.28;;;19.52;71.45
17230;BME280;8731;50.364;8.958;2022-10-23T13:39:15;99566.81;;;19.74;72.67
17230;BME280;8731;50.364;8.958;2022-10-23T13:43:43;99554.53;;;19.68;73.31
17230;BME280;8731;50.364;8.958;2022-10-23T13:48:12;99547.78;;;19.72;72.44
17230;BME280;8731;50.364;8.958;2022-10-23T13:52:35;99540.94;;;19.37;72.24
17230;BME280;8731;50.364;8.958;2022-10-23T13:56:58;99536.16;;;19.44;71.09
17230;BME280;8731;50.364;8.958;2022-10-23T14:01:22;99541.09;;;19.57;73.06
17230;BME280;8731;50.364;8.958;2022-10-23T14:05:47;99522.78;;;19.53;73.44
17230;BME280;8731;50.364;8.958;2022-10-23T14:10:09;99527.66;;;19.47;73.21
17230;BME280;8731;50.364;8.958;2022-10-23T14:14:31;99525.97;;;19.47;72.35
17230;BME280;8731;50.364;8.958;2022-10-23T14:18:54;99521.88;;;19.52;72.38
17230;BME280;8731;50.364;8.958;2022-10-23T14:23:18;99511.38;;;19.30;71.78
17230;BME280;8731;50.364;8.958;2022-10-23T14:27:40;99519.47;;;19.38;72.01
17230;BME280;8731;50.364;8.958;2022-10-23T14:32:03;99521.53;;;19.45;72.47
17230;BME280;8731;50.364;8.958;2022-10-23T14:36:25;99515.56;;;19.46;72.47
17230;BME280;8731;50.364;8.958;2022-10-23T14:40:49;99516.59;;;19.31;72.70
17230;BME280;8731;50.364;8.958;2022-10-23T14:45:12;99511.78;;;19.39;72.36
17230;BME280;8731;50.364;8.958;2022-10-23T14:49:34;99499.03;;;19.42;72.72
17230;BME280;8731;50.364;8.958;2022-10-23T14:54:00;99490.03;;;19.34;73.82
17230;BME280;8731;50.364;8.958;2022-10-23T14:58:25;99473.31;;;19.26;74.04
17230;BME280;8731;50.364;8.958;2022-10-23T15:02:48;99476.50;;;19.20;73.75
17230;BME280;8731;50.364;8.958;2022-10-23T15:07:10;99473.38;;;19.27;73.85
17230;BME280;8731;50.364;8.958;2022-10-23T15:11:33;99464.47;;;19.21;74.57
17230;BME280;8731;50.364;8.958;2022-10-23T15:16:04;99459.47;;;19.24;74.35
17230;BME280;8731;50.364;8.958;2022-10-23T15:20:28;99455.78;;;19.19;75.10
17230;BME280;8731;50.364;8.958;2022-10-23T15:24:50;99449.16;;;19.06;75.62
17230;BME280;8731;50.364;8.958;2022-10-23T15:29:13;99426.81;;;19.07;75.31
17230;BME280;8731;50.364;8.958;2022-10-23T15:33:37;99420.94;;;18.74;75.83
17230;BME280;8731;50.364;8.958;2022-10-23T15:38:00;99411.78;;;18.80;75.63
17230;BME280;8731;50.364;8.958;2022-10-23T15:42:22;99404.72;;;18.76;76.04
17230;BME280;8731;50.364;8.958;2022-10-23T15:46:45;99411.88;;;18.82;76.10
17230;BME280;8731;50.364;8.958;2022-10-23T15:51:09;99412.47;;;18.76;76.20
17230;BME280;8731;50.364;8.958;2022-10-23T15:55:32;99413.78;;;18.68;76.55
17230;BME280;8731;50.364;8.958;2022-10-23T15:59:54;99419.41;;;18.61;77.04
17230;BME280;8731;50.364;8.958;2022-10-23T16:04:17;99404.47;;;18.54;77.39
17230;BME280;8731;50.364;8.958;2022-10-23T16:08:41;99390.56;;;18.50;77.47
17230;BME280;8731;50.364;8.958;2022-10-23T16:13:03;99384.56;;;18.33;78.08
17230;BME280;8731;50.364;8.958;2022-10-23T16:17:26;99398.78;;;18.43;77.55
17230;BME280;8731;50.364;8.958;2022-10-23T16:21:48;99376.97;;;18.36;77.56
17230;BME280;8731;50.364;8.958;2022-10-23T16:26:12;99369.47;;;18.23;78.23
17230;BME280;8731;50.364;8.958;2022-10-23T16:30:39;99369.47;;;18.23;78.39
17230;BME280;8731;50.364;8.958;2022-10-23T16:35:02;99369.81;;;18.13;78.30
17230;BME280;8731;50.364;8.958;2022-10-23T16:39:35;99357.78;;;17.96;78.52
17230;BME280;8731;50.364;8.958;2022-10-23T16:44:18;99371.13;;;18.05;78.63
17230;BME280;8731;50.364;8.958;2022-10-23T16:48:51;99365.84;;;18.02;78.76
17230;BME280;8731;50.364;8.958;2022-10-23T16:53:14;99367.75;;;18.06;78.40
17230;BME280;8731;50.364;8.958;2022-10-23T16:57:36;99370.03;;;18.00;78.82
17230;BME280;8731;50.364;8.958;2022-10-23T17:02:00;99381.84;;;17.96;79.49
17230;BME280;8731;50.364;8.958;2022-10-23T17:06:24;99377.75;;;18.00;79.27
17230;BME280;8731;50.364;8.958;2022-10-23T17:10:48;99373.50;;;18.00;79.18
17230;BME280;8731;50.364;8.958;2022-10-23T17:15:11;99362.84;;;17.94;79.38
17230;BME280;8731;50.364;8.958;2022-10-23T17:19:35;99373.44;;;17.83;79.98
17230;BME280;8731;50.364;8.958;2022-10-23T17:24:00;99351.66;;;17.94;79.19
17230;BME280;8731;50.364;8.958;2022-10-23T17:28:24;99337.38;;;17.83;79.72
17230;BME280;8731;50.364;8.958;2022-10-23T17:32:46;99335.91;;;17.88;79.80
17230;BME280;8731;50.364;8.958;2022-10-23T17:37:10;99334.88;;;17.84;79.49
17230;BME280;8731;50.364;8.958;2022-10-23T17:41:33;99347.69;;;17.83;79.44
17230;BME280;8731;50.364;8.958;2022-10-23T17:45:56;99343.50;;;17.85;78.30
17230;BME280;8731;50.364;8.958;2022-10-23T17:50:19;99337.97;;;17.95;77.43
17230;BME280;8731;50.364;8.958;2022-10-23T17:54:42;99355.19;;;17.96;77.81
17230;BME280;8731;50.364;8.958;2022-10-23T17:59:08;99385.22;;;17.95;78.52
17230;BME280;8731;50.364;8.958;2022-10-23T18:03:33;99413.34;;;17.91;79.55
17230;BME280;8731;50.364;8.958;2022-10-23T18:07:57;99417.03;;;17.96;79.40
17230;BME280;8731;50.364;8.958;2022-10-23T18:12:20;99470.88;;;17.91;80.19
17230;BME280;8731;50.364;8.958;2022-10-23T18:16:43;99567.25;;;17.64;81.61
17230;BME280;8731;50.364;8.958;2022-10-23T18:21:06;99569.41;;;17.56;84.03
17230;BME280;8731;50.364;8.958;2022-10-23T18:25:29;99569.66;;;17.30;84.82
17230;BME280;8731;50.364;8.958;2022-10-23T18:29:54;99564.09;;;17.53;86.02
17230;BME280;8731;50.364;8.958;2022-10-23T18:34:19;99571.19;;;17.42;87.78
17230;BME280;8731;50.364;8.958;2022-10-23T18:38:44;99571.25;;;17.13;89.13
17230;BME280;8731;50.364;8.958;2022-10-23T18:43:08;99576.41;;;17.28;89.74
17230;BME280;8731;50.364;8.958;2022-10-23T18:47:32;99556.88;;;17.31;89.30
17230;BME280;8731;50.364;8.958;2022-10-23T18:51:54;99557.03;;;17.34;89.07
17230;BME280;8731;50.364;8.958;2022-10-23T18:56:19;99570.88;;;17.36;88.62
17230;BME280;8731;50.364;8.958;2022-10-23T19:00:45;99557.75;;;17.32;89.18
17230;BME280;8731;50.364;8.958;2022-10-23T19:05:09;99562.09;;;17.33;88.97
17230;BME280;8731;50.364;8.958;2022-10-23T19:09:31;99541.25;;;17.28;90.20
17230;BME280;8731;50.364;8.958;2022-10-23T19:13:54;99540.16;;;17.25;90.55
17230;BME280;8731;50.364;8.958;2022-10-23T19:18:16;99545.09;;;17.05;93.82
17230;BME280;8731;50.364;8.958;2022-10-23T19:22:42;99506.06;;;16.39;100.00
17230;BME280;8731;50.364;8.958;2022-10-23T19:27:07;99460.59;;;16.52;100.00
17230;BME280;8731;50.364;8.958;2022-10-23T19:31:30;99454.25;;;16.61;99.62
17230;BME280;8731;50.364;8.958;2022-10-23T19:35:54;99505.03;;;16.65;100.00
17230;BME280;8731;50.364;8.958;2022-10-23T19:40:18;99510.16;;;16.79;98.17
17230;BME280;8731;50.364;8.958;2022-10-23T19:44:43;99495.28;;;16.74;98.41
17230;BME280;8731;50.364;8.958;2022-10-23T19:49:05;99492.72;;;16.59;100.00
17230;BME280;8731;50.364;8.958;2022-10-23T19:53:28;99494.66;;;16.63;99.34
17230;BME280;8731;50.364;8.958;2022-10-23T19:57:52;99499.88;;;16.65;98.76
17230;BME280;8731;50.364;8.958;2022-10-23T20:02:14;99500.59;;;16.62;98.14
17230;BME280;8731;50.364;8.958;2022-10-23T20:06:37;99508.59;;;16.67;97.98
17230;BME280;8731;50.364;8.958;2022-10-23T20:10:59;99509.56;;;16.69;96.85
17230;BME280;8731;50.364;8.958;2022-10-23T20:15:23;99531.72;;;16.67;96.33
17230;BME280;8731;50.364;8.958;2022-10-23T20:19:46;99516.97;;;16.64;96.29
17230;BME280;8731;50.364;8.958;2022-10-23T20:24:10;99510.78;;;16.61;96.24
17230;BME280;8731;50.364;8.958;2022-10-23T20:28:33;99514.25;;;16.61;96.42
17230;BME280;8731;50.364;8.958;2022-10-23T20:32:57;99530.47;;;16.60;96.13
17230;BME280;8731;50.364;8.958;2022-10-23T20:37:20;99543.31;;;16.60;96.41
17230;BME280;8731;50.364;8.958;2022-10-23T20:41:42;99545.09;;;16.61;96.07
17230;BME280;8731;50.364;8.958;2022-10-23T20:46:05;99537.13;;;16.56;97.65
17230;BME280;8731;50.364;8.958;2022-10-23T20:50:33;99534.53;;;16.56;97.73
17230;BME280;8731;50.364;8.958;2022-10-23T20:54:55;99527.88;;;16.60;97.83
17230;BME280;8731;50.364;8.958;2022-10-23T20:59:18;99533.03;;;16.60;97.66
17230;BME280;8731;50.364;8.958;2022-10-23T21:03:41;99531.84;;;16.55;99.64
17230;BME280;8731;50.364;8.958;2022-10-23T21:08:05;99531.25;;;16.59;99.78
17230;BME280;8731;50.364;8.958;2022-10-23T21:12:27;99532.22;;;16.61;99.08
17230;BME280;8731;50.364;8.958;2022-10-23T21:16:50;99525.13;;;16.42;100.00
17230;BME280;8731;50.364;8.958;2022-10-23T21:21:13;99526.19;;;16.46;97.41
17230;BME280;8731;50.364;8.958;2022-10-23T21:25:39;99527.41;;;16.52;100.00
17230;BME280;8731;50.364;8.958;2022-10-23T21:30:03;99534.63;;;16.58;99.49
17230;BME280;8731;50.364;8.958;2022-10-23T21:34:26;99533.84;;;16.59;100.00
17230;BME280;8731;50.364;8.958;2022-10-23T21:38:51;99546.78;;;16.61;98.95
17230;BME280;8731;50.364;8.958;2022-10-23T21:43:17;99548.88;;;16.53;97.67
17230;BME280;8731;50.364;8.958;2022-10-23T21:47:39;99544.34;;;16.49;95.19
17230;BME280;8731;50.364;8.958;2022-10-23T21:52:03;99543.19;;;16.44;100.00
17230;BME280;8731;50.364;8.958;2022-10-23T21:56:28;99554.72;;;16.50;100.00
17230;BME280;8731;50.364;8.958;2022-10-23T22:00:53;99566.16;;;16.55;99.12
17230;BME280;8731;50.364;8.958;2022-10-23T22:05:15;99569.34;;;16.51;99.20
17230;BME280;8731;50.364;8.958;2022-10-23T22:09:37;99576.50;;;16.42;98.44
17230;BME280;8731;50.364;8.958;2022-10-23T22:14:00;99579.88;;;16.41;98.51
17230;BME280;8731;50.364;8.958;2022-10-23T22:18:23;99580.31;;;16.34;100.00
17230;BME280;8731;50.364;8.958;2022-10-23T22:22:46;99570.44;;;16.27;100.00
17230;BME280;8731;50.364;8.958;2022-10-23T22:27:08;99570.19;;;16.22;99.41
17230;BME280;8731;50.364;8.958;2022-10-23T22:31:32;99573.63;;;16.23;98.70
17230;BME280;8731;50.364;8.958;2022-10-23T22:36:00;99577.88;;;16.22;98.12
17230;BME280;8731;50.364;8.958;2022-10-23T22:40:23;99568.22;;;16.18;98.24
17230;BME280;8731;50.364;8.958;2022-10-23T22:44:45;99572.09;;;16.12;98.02
17230;BME280;8731;50.364;8.958;2022-10-23T22:49:07;99580.13;;;16.03;97.73
17230;BME280;8731;50.364;8.958;2022-10-23T22:53:31;99582.59;;;16.02;97.47
17230;BME280;8731;50.364;8.958;2022-10-23T22:57:54;99570.38;;;15.98;97.93
17230;BME280;8731;50.364;8.958;2022-10-23T23:02:16;99566.16;;;15.85;98.84
17230;BME280;8731;50.364;8.958;2022-10-23T23:06:38;99566.38;;;15.75;100.00
17230;BME280;8731;50.364;8.958;2022-10-23T23:11:02;99568.25;;;15.77;98.83
17230;BME280;8731;50.364;8.958;2022-10-23T23:15:25;99584.25;;;15.73;98.84
17230;BME280;8731;50.364;8.958;2022-10-23T23:19:48;99589.09;;;15.69;99.35
17230;BME280;8731;50.364;8.958;2022-10-23T23:24:10;99588.13;;;15.67;98.05
17230;BME280;8731;50.364;8.958;2022-10-23T23:28:34;99589.53;;;15.61;99.29
17230;BME280;8731;50.364;8.958;2022-10-23T23:32:56;99593.50;;;15.58;100.00
17230;BME280;8731;50.364;8.958;2022-10-23T23:37:19;99593.50;;;15.58;99.74
17230;BME280;8731;50.364;8.958;2022-10-23T23:41:41;99587.41;;;15.56;98.77
17230;BME280;8731;50.364;8.958;2022-10-23T23:46:05;99581.09;;;15.51;98.45